Boardman, Wisconsin
Current Conditions -  °F | °C
As of 10:51 AM on Monday 22 Dec 2014 (Local Time) from K21D Reporting Station
Drizzle Drizzle  
Wind Chill: 29°   Ceiling: 600
Heat Index: 36°   Visibility: 2.5mi
Dew Point: 34°   Wind: 9mph
Humidity: 93%   Direction: 130°SE
Pressure: 29.67"   Gusts: NA
Location:  44.9743°N, 92.6899°W
Report Text: K21D 221651Z AUTO 13008KT 2 1/2SM -DZ OVC006 02/01 A2967 RMK AO2
Loading
Personal Weather Stations






























Interactive Weather Map New forecast layout! Learn more

10-Day Weather Forecast

Advertisements
Track Severe Weather on mobile